This is the latest recevied weather packets stored in our database for station/object K7TSD. If no packets are shown the sender has not sent any weather packets the latest 10 day(s).
| Time | Temp. | Humidity | Pressure | Rain* | Wind** | Luminosity | Snow |
|---|---|---|---|---|---|---|---|
| 1777809428 | 6.67° C | 72% | 1014.4 hPa | 0 mm | - | 0 W/m² | - |
| 1777809125 | 6.67° C | 72% | 1014.2 hPa | 0 mm | - | 0 W/m² | - |
| 1777808823 | 6.67° C | 71% | 1014.3 hPa | 0 mm | - | 0 W/m² | - |
| 1777808520 | 6.67° C | 71% | 1014.2 hPa | 0 mm | - | 0 W/m² | - |
| 1777808217 | 6.11° C | 74% | 1014 hPa | 0 mm | - | 0 W/m² | - |
| 1777807916 | 6.67° C | 73% | 1014.4 hPa | 0 mm | - | 0 W/m² | - |
| 1777807613 | 6.67° C | 72% | 1014.5 hPa | 0 mm | - | 0 W/m² | - |
| 1777807310 | 6.11° C | 75% | 1014.4 hPa | 0 mm | - | 0 W/m² | - |
| 1777807006 | 6.11° C | 73% | 1014.4 hPa | 0 mm | - | 0 W/m² | - |
| 1777806703 | 6.11° C | 73% | 1014.2 hPa | 0 mm | - | 0 W/m² | - |
| 1777806398 | 6.67° C | 72% | 1014.5 hPa | 0 mm | - | 0 W/m² | - |
| 1777806096 | 6.11° C | 73% | 1014.5 hPa | 0 mm | - | 0 W/m² | - |
| 1777805792 | 6.11° C | 73% | 1014.6 hPa | 0 mm | - | 0 W/m² | - |
| 1777805489 | 6.11° C | 74% | 1014.9 hPa | 0 mm | - | 0 W/m² | - |
| 1777805187 | 6.67° C | 72% | 1014.7 hPa | 0 mm | - | 0 W/m² | - |
| 1777804885 | 7.22° C | 70% | 1014.9 hPa | 0 mm | - | 0 W/m² | - |
| 1777804582 | 6.67° C | 72% | 1015 hPa | 0 mm | - | 0 W/m² | - |
| 1777804280 | 7.22° C | 71% | 1014.5 hPa | 0 mm | - | 0 W/m² | - |
| 1777803977 | 7.78° C | 69% | 1014.6 hPa | 0 mm | - | 0 W/m² | - |
| 1777803673 | 7.78° C | 68% | 1014.7 hPa | 0 mm | - | 0 W/m² | - |
| 1777803369 | 7.78° C | 68% | 1014.7 hPa | 0 mm | - | 0 W/m² | - |
| 1777803067 | 7.78° C | 69% | 1014.7 hPa | 0 mm | - | 0 W/m² | - |
| 1777802764 | 8.33° C | 69% | 1014.6 hPa | 0 mm | - | 0 W/m² | - |
| 1777802462 | 7.78° C | 67% | 1014.6 hPa | 0 mm | - | 0 W/m² | - |
| 1777802160 | 7.78° C | 69% | 1014.5 hPa | 0 mm | - | 0 W/m² | - |
* Rain latest hour (hover to see other rain measurements)
** Current wind speed in m/s (hover to see current wind gust speed)